Time,TemperatureF,DewpointF,PressureIn,WindDirection,WindDirectionDegrees,WindSpeedMPH,WindSpeedGustMPH,Humidity,HourlyPrecipIn,Conditions,Clouds,dailyrainin,SolarRadiationWatts/m^2,SoftwareType,DateUTC
2013-02-04 00:03:00,28.0,15.0,-100.00,East,86,5.0,16.0,58,0.00,,,-99.99,0.000000,,2013-02-04 05:03:00,
2013-02-04 00:33:00,27.0,15.0,-100.00,NNE,32,5.0,17.0,61,0.00,,,0.00,0.000000,,2013-02-04 05:33:00,
2013-02-04 00:42:00,27.0,15.0,-100.00,NNE,32,5.0,17.0,61,0.00,,,0.00,0.000000,,2013-02-04 05:42:00,
2013-02-04 00:52:00,27.0,15.0,-100.00,NNE,32,5.0,17.0,61,0.00,,,0.00,0.000000,,2013-02-04 05:52:00,
2013-02-04 01:02:00,27.0,15.0,-100.00,NNE,32,5.0,17.0,61,0.00,,,0.00,0.000000,,2013-02-04 06:02:00,
2013-02-04 01:21:00,27.0,15.0,-100.00,NW,307,5.0,11.0,60,0.00,,,0.00,0.000000,,2013-02-04 06:21:00,
2013-02-04 01:32:00,27.0,15.0,-100.00,NW,307,5.0,11.0,60,0.00,,,0.00,0.000000,,2013-02-04 06:32:00,
2013-02-04 01:42:00,27.0,15.0,-100.00,NW,307,5.0,11.0,60,0.00,,,0.00,0.000000,,2013-02-04 06:42:00,
2013-02-04 01:52:00,27.0,15.0,-100.00,NW,307,5.0,11.0,60,0.00,,,0.00,0.000000,,2013-02-04 06:52:00,
2013-02-04 02:02:00,27.0,15.0,-100.00,NW,307,5.0,11.0,60,0.00,,,0.00,0.000000,,2013-02-04 07:02:00,
2013-02-04 02:32:00,28.0,14.0,-100.00,SSW,193,4.0,14.0,54,0.00,,,0.00,0.000000,,2013-02-04 07:32:00,
2013-02-04 02:42:00,28.0,14.0,-100.00,SSW,193,4.0,14.0,54,0.00,,,0.00,0.000000,,2013-02-04 07:42:00,
2013-02-04 02:52:00,28.0,14.0,-100.00,SSW,193,4.0,14.0,54,0.00,,,0.00,0.000000,,2013-02-04 07:52:00,
2013-02-04 03:01:00,28.0,14.0,-100.00,SSW,193,4.0,14.0,54,0.00,,,0.00,0.000000,,2013-02-04 08:01:00,
2013-02-04 03:32:00,31.0,8.0,-100.00,NE,37,6.0,14.0,38,0.00,,,0.00,0.000000,,2013-02-04 08:32:00,
2013-02-04 04:32:00,32.0,12.0,-100.00,North,10,5.0,19.0,42,-99.99,,,0.00,0.000000,,2013-02-04 09:32:00,
2013-02-04 05:32:00,34.0,13.0,-100.00,NNE,17,6.0,14.0,42,-99.99,,,0.00,0.000000,,2013-02-04 10:32:00,
2013-02-04 06:33:00,36.0,15.0,-100.00,NNW,336,7.0,19.0,42,-99.99,,,0.00,0.000000,,2013-02-04 11:33:00,
2013-02-04 07:22:00,34.0,15.0,-100.00,West,272,4.0,19.0,45,-99.99,,,0.00,0.000000,,2013-02-04 12:22:00,
2013-02-04 08:22:00,31.0,16.0,-100.00,West,261,4.0,13.0,54,-99.99,,,0.00,10.000000,,2013-02-04 13:22:00,
2013-02-04 08:33:00,31.0,16.0,-100.00,West,261,4.0,13.0,54,-99.99,,,0.00,10.000000,,2013-02-04 13:33:00,
2013-02-04 08:42:00,31.0,16.0,-100.00,West,261,4.0,13.0,54,-99.99,,,0.00,10.000000,,2013-02-04 13:42:00,
2013-02-04 08:52:00,31.0,16.0,-100.00,West,261,4.0,13.0,54,-99.99,,,0.00,10.000000,,2013-02-04 13:52:00,
2013-02-04 09:03:00,31.0,16.0,-100.00,West,261,4.0,13.0,54,-99.99,,,0.00,10.000000,,2013-02-04 14:03:00,
2013-02-04 09:33:00,32.0,18.0,-100.00,West,262,2.0,6.0,56,0.00,,,0.00,55.000000,,2013-02-04 14:33:00,
2013-02-04 09:42:00,32.0,18.0,-100.00,West,262,2.0,6.0,56,0.00,,,0.00,55.000000,,2013-02-04 14:42:00,
2013-02-04 09:53:00,32.0,18.0,-100.00,West,262,2.0,6.0,56,0.00,,,0.00,55.000000,,2013-02-04 14:53:00,
2013-02-04 10:03:00,32.0,18.0,-100.00,West,262,2.0,6.0,56,0.00,,,0.00,55.000000,,2013-02-04 15:03:00,
2013-02-04 10:33:00,36.0,21.0,-100.00,WSW,244,4.0,6.0,55,0.00,,,0.00,102.000000,,2013-02-04 15:33:00,
2013-02-04 13:33:00,46.0,19.0,-100.00,West,262,5.0,10.0,34,-99.99,,,0.00,402.000000,,2013-02-04 18:33:00,
2013-02-04 13:42:00,46.0,19.0,-100.00,West,262,5.0,10.0,34,-99.99,,,0.00,402.000000,,2013-02-04 18:42:00,
2013-02-04 13:52:00,46.0,19.0,-100.00,West,262,5.0,10.0,34,-99.99,,,0.00,402.000000,,2013-02-04 18:52:00,
2013-02-04 14:02:00,46.0,19.0,-100.00,West,262,5.0,10.0,34,-99.99,,,0.00,402.000000,,2013-02-04 19:02:00,
2013-02-04 14:22:00,50.0,21.0,-100.00,WSW,237,4.0,11.0,32,0.00,,,0.00,444.000000,,2013-02-04 19:22:00,
2013-02-04 14:32:00,50.0,21.0,-100.00,WSW,237,4.0,11.0,32,0.00,,,0.00,444.000000,,2013-02-04 19:32:00,
2013-02-04 14:42:00,50.0,21.0,-100.00,WSW,237,4.0,11.0,32,0.00,,,0.00,444.000000,,2013-02-04 19:42:00,
2013-02-04 14:52:00,50.0,21.0,-100.00,WSW,237,4.0,11.0,32,0.00,,,0.00,444.000000,,2013-02-04 19:52:00,
2013-02-04 15:02:00,50.0,21.0,-100.00,WSW,237,4.0,11.0,32,0.00,,,0.00,444.000000,,2013-02-04 20:02:00,
2013-02-04 15:22:00,47.0,19.0,-100.00,SW,230,7.0,19.0,32,0.00,,,0.00,393.000000,,2013-02-04 20:22:00,
2013-02-04 15:32:00,47.0,19.0,-100.00,SW,230,7.0,19.0,32,0.00,,,0.00,393.000000,,2013-02-04 20:32:00,
2013-02-04 15:42:00,47.0,19.0,-100.00,SW,230,7.0,19.0,32,0.00,,,0.00,393.000000,,2013-02-04 20:42:00,
2013-02-04 15:52:00,47.0,19.0,-100.00,SW,230,7.0,19.0,32,0.00,,,0.00,393.000000,,2013-02-04 20:52:00,
2013-02-04 16:03:00,47.0,19.0,-100.00,SW,230,7.0,19.0,32,0.00,,,0.00,393.000000,,2013-02-04 21:03:00,
2013-02-04 16:32:00,45.0,18.0,-100.00,SW,221,6.0,15.0,34,0.00,,,0.00,240.000000,,2013-02-04 21:32:00,
2013-02-04 16:43:00,45.0,18.0,-100.00,SW,221,6.0,15.0,34,0.00,,,0.00,240.000000,,2013-02-04 21:43:00,
2013-02-04 16:52:00,45.0,18.0,-100.00,SW,221,6.0,15.0,34,0.00,,,0.00,240.000000,,2013-02-04 21:52:00,
2013-02-04 17:03:00,45.0,18.0,-100.00,SW,221,6.0,15.0,34,0.00,,,0.00,240.000000,,2013-02-04 22:03:00,
2013-02-04 17:33:00,43.0,19.0,-100.00,SW,230,5.0,16.0,37,0.00,,,0.00,143.000000,,2013-02-04 22:33:00,
2013-02-04 17:42:00,43.0,19.0,-100.00,SW,230,5.0,16.0,37,0.00,,,0.00,143.000000,,2013-02-04 22:42:00,
2013-02-04 17:52:00,43.0,19.0,-100.00,SW,230,5.0,16.0,37,0.00,,,0.00,143.000000,,2013-02-04 22:52:00,
2013-02-04 18:02:00,43.0,19.0,-100.00,SW,230,5.0,16.0,37,0.00,,,0.00,143.000000,,2013-02-04 23:02:00,
2013-02-04 18:32:00,40.0,19.0,-100.00,WSW,243,5.0,10.0,42,0.00,,,0.00,33.000000,,2013-02-04 23:32:00,
2013-02-04 18:42:00,40.0,19.0,-100.00,WSW,243,5.0,10.0,42,0.00,,,0.00,33.000000,,2013-02-04 23:42:00,
2013-02-04 18:52:00,40.0,19.0,-100.00,WSW,243,5.0,10.0,42,0.00,,,0.00,33.000000,,2013-02-04 23:52:00,
2013-02-04 19:02:00,40.0,19.0,-100.00,WSW,243,5.0,10.0,42,0.00,,,0.00,33.000000,,2013-02-05 00:02:00,
2013-02-04 19:32:00,35.0,18.0,-100.00,West,273,2.0,12.0,49,0.00,,,0.00,0.000000,,2013-02-05 00:32:00,
2013-02-04 19:42:00,35.0,18.0,-100.00,West,273,2.0,12.0,49,0.00,,,0.00,0.000000,,2013-02-05 00:42:00,
2013-02-04 19:52:00,35.0,18.0,-100.00,West,273,2.0,12.0,49,0.00,,,0.00,0.000000,,2013-02-05 00:52:00,
2013-02-04 20:02:00,35.0,18.0,-100.00,West,273,2.0,12.0,49,0.00,,,0.00,0.000000,,2013-02-05 01:02:00,
2013-02-04 20:33:00,29.0,19.0,-100.00,South,189,1.0,3.0,66,0.00,,,0.00,0.000000,,2013-02-05 01:33:00,
2013-02-04 20:42:00,29.0,19.0,-100.00,South,189,1.0,3.0,66,0.00,,,0.00,0.000000,,2013-02-05 01:42:00,
2013-02-04 20:52:00,29.0,19.0,-100.00,South,189,1.0,3.0,66,0.00,,,0.00,0.000000,,2013-02-05 01:52:00,
2013-02-04 21:02:00,29.0,19.0,-100.00,South,189,1.0,3.0,66,0.00,,,0.00,0.000000,,2013-02-05 02:02:00,
2013-02-04 21:32:00,28.0,20.0,-100.00,NW,319,2.0,4.0,73,0.00,,,0.00,0.000000,,2013-02-05 02:32:00,
2013-02-04 21:42:00,28.0,20.0,-100.00,NW,319,2.0,4.0,73,0.00,,,0.00,0.000000,,2013-02-05 02:42:00,
2013-02-04 21:52:00,28.0,20.0,-100.00,NW,319,2.0,4.0,73,0.00,,,0.00,0.000000,,2013-02-05 02:52:00,
2013-02-04 22:02:00,28.0,20.0,-100.00,NW,319,2.0,4.0,73,0.00,,,0.00,0.000000,,2013-02-05 03:02:00,
2013-02-04 22:32:00,29.0,21.0,-100.00,East,99,0.0,3.0,73,0.00,,,0.00,0.000000,,2013-02-05 03:32:00,
2013-02-04 22:42:00,29.0,21.0,-100.00,East,99,0.0,3.0,73,0.00,,,0.00,0.000000,,2013-02-05 03:42:00,
2013-02-04 22:52:00,29.0,21.0,-100.00,East,99,0.0,3.0,73,0.00,,,0.00,0.000000,,2013-02-05 03:52:00,
2013-02-04 23:01:00,29.0,21.0,-100.00,East,99,0.0,3.0,73,0.00,,,0.00,0.000000,,2013-02-05 04:01:00,
2013-02-04 23:32:00,30.0,22.0,-100.00,ENE,59,2.0,5.0,73,0.00,,,0.00,0.000000,,2013-02-05 04:32:00,
2013-02-04 23:42:00,30.0,22.0,-100.00,ENE,59,2.0,5.0,73,0.00,,,0.00,0.000000,,2013-02-05 04:42:00,
2013-02-04 23:52:00,30.0,22.0,-100.00,ENE,59,2.0,5.0,73,0.00,,,0.00,0.000000,,2013-02-05 04:52:00,